createdAt,value
2019-03-25T00:01:22.730Z,65.80
2019-03-25T00:03:52.685Z,60.47
2019-03-25T00:06:24.584Z,59.60
2019-03-25T00:09:04.913Z,62.63
2019-03-25T00:11:27.799Z,54.83
2019-03-25T00:13:58.790Z,59.67
2019-03-25T00:16:29.934Z,63.17
2019-03-25T00:19:30.522Z,59.50
2019-03-25T00:22:14.407Z,62.93
2019-03-25T00:25:15.152Z,62.20
2019-03-25T00:28:20.171Z,60.83
2019-03-25T00:31:27.129Z,60.00
2019-03-25T00:35:17.839Z,62.47
2019-03-25T00:37:48.556Z,61.03
2019-03-25T00:40:18.791Z,63.03
2019-03-25T00:43:02.301Z,61.57
2019-03-25T00:46:14.162Z,56.73
2019-03-25T00:48:40.252Z,58.07
2019-03-25T00:51:12.886Z,60.30
2019-03-25T00:56:15.599Z,58.73
2019-03-25T00:57:23.258Z,54.97
2019-03-25T00:59:50.439Z,59.67
2019-03-25T01:02:24.208Z,58.60
2019-03-25T01:04:54.546Z,67.67
2019-03-25T01:07:53.346Z,64.43
2019-03-25T01:11:29.761Z,60.20
2019-03-25T01:14:00.634Z,56.70
2019-03-25T01:16:31.574Z,60.30
2019-03-25T01:19:03.838Z,59.77
2019-03-25T01:21:34.309Z,58.63
2019-03-25T01:24:04.958Z,64.00
2019-03-25T01:26:35.422Z,61.20
2019-03-25T01:29:05.136Z,61.03
2019-03-25T01:31:37.045Z,64.90
2019-03-25T01:34:09.169Z,61.77
2019-03-25T01:36:39.830Z,62.23
2019-03-25T01:39:10.068Z,63.83
2019-03-25T01:41:41.101Z,58.50
2019-03-25T01:48:01.456Z,58.30
2019-03-25T01:50:31.817Z,60.87
2019-03-25T01:53:03.966Z,56.97
2019-03-25T01:55:35.568Z,59.67
2019-03-25T01:58:45.315Z,61.23
2019-03-25T02:01:15.072Z,66.40
2019-03-25T02:03:46.620Z,58.67
2019-03-25T02:06:17.685Z,59.07
2019-03-25T02:08:47.517Z,61.30
2019-03-25T02:11:18.470Z,60.90
2019-03-25T02:13:49.396Z,61.03
2019-03-25T02:16:22.844Z,66.00
2019-03-25T02:18:53.373Z,66.27
2019-03-25T02:21:23.659Z,64.23
2019-03-25T02:23:54.735Z,66.57
2019-03-25T02:26:25.026Z,64.97
2019-03-25T02:28:56.716Z,64.80
2019-03-25T02:31:29.510Z,61.90
2019-03-25T02:33:59.903Z,66.50
2019-03-25T02:36:31.856Z,60.97
2019-03-25T02:39:05.774Z,64.57
2019-03-25T02:41:35.882Z,60.33
2019-03-25T02:44:13.387Z,63.13
2019-03-25T02:46:44.394Z,58.40
2019-03-25T02:49:16.609Z,61.20
2019-03-25T02:51:47.241Z,63.33
2019-03-25T02:54:19.037Z,62.87
2019-03-25T02:56:49.548Z,65.40
2019-03-25T02:59:20.428Z,68.47
2019-03-25T03:01:51.076Z,67.30
2019-03-25T03:04:21.145Z,65.47
2019-03-25T03:06:51.568Z,68.33
2019-03-25T03:09:22.668Z,64.43
2019-03-25T03:11:53.231Z,76.27
2019-03-25T03:14:25.404Z,63.60
2019-03-25T03:16:56.402Z,72.13
2019-03-25T03:19:27.042Z,64.47
2019-03-25T03:21:57.455Z,66.00
2019-03-25T03:24:29.987Z,62.33
2019-03-25T03:27:00.757Z,69.23
2019-03-25T03:29:31.090Z,66.67
2019-03-25T03:32:02.250Z,71.07
2019-03-25T03:34:36.359Z,70.70
2019-03-25T03:37:08.248Z,65.80
2019-03-25T03:39:38.409Z,66.27
2019-03-25T03:42:08.616Z,74.33
2019-03-25T03:44:38.497Z,72.10
2019-03-25T03:47:11.895Z,69.67
2019-03-25T03:49:41.700Z,66.63
2019-03-25T03:52:12.886Z,66.13
2019-03-25T03:54:45.420Z,72.07
2019-03-25T03:57:16.562Z,68.13
2019-03-25T03:59:47.743Z,65.73
2019-03-25T04:02:20.885Z,69.00
2019-03-25T04:04:51.634Z,65.30
2019-03-25T04:07:22.534Z,66.42
2019-03-25T04:09:52.649Z,62.17
2019-03-25T04:12:28.068Z,65.93
2019-03-25T04:15:00.441Z,65.80
2019-03-25T04:17:31.184Z,62.53
2019-03-25T04:20:01.472Z,64.93
2019-03-25T04:22:32.353Z,64.10
2019-03-25T04:25:04.432Z,63.63
2019-03-25T04:27:34.795Z,68.23
2019-03-25T04:30:04.908Z,59.87
2019-03-25T04:32:39.140Z,62.83
2019-03-25T04:35:10.812Z,69.67
2019-03-25T04:37:42.175Z,69.97
2019-03-25T04:40:12.860Z,59.97
2019-03-25T04:42:44.640Z,68.67
2019-03-25T04:45:16.385Z,66.67
2019-03-25T04:47:47.091Z,62.57
2019-03-25T04:50:18.179Z,67.40
2019-03-25T04:52:48.294Z,63.70
2019-03-25T04:55:20.511Z,62.77
2019-03-25T04:57:52.390Z,71.23
2019-03-25T05:00:35.192Z,62.03
2019-03-25T05:03:06.303Z,64.03
2019-03-25T05:05:36.879Z,64.60
2019-03-25T05:08:07.075Z,60.17
2019-03-25T05:10:38.903Z,65.40
2019-03-25T05:13:31.933Z,65.63
2019-03-25T05:20:07.831Z,71.87
2019-03-25T05:22:42.145Z,71.07
2019-03-25T05:25:12.391Z,71.50
2019-03-25T05:27:43.611Z,68.47
2019-03-25T05:30:14.021Z,71.40
2019-03-25T05:32:48.051Z,72.80
2019-03-25T05:35:35.013Z,68.03
2019-03-25T05:38:10.698Z,64.20
2019-03-25T05:40:39.650Z,65.23
2019-03-25T05:43:10.587Z,67.97
2019-03-25T05:45:40.373Z,68.13
2019-03-25T05:48:12.499Z,65.27
2019-03-25T05:50:46.068Z,69.57
2019-03-25T05:53:16.295Z,70.60
2019-03-25T05:55:47.208Z,61.23
2019-03-25T05:58:19.322Z,59.77
2019-03-25T06:00:50.784Z,59.97
2019-03-25T06:03:21.833Z,54.63
2019-03-25T06:05:55.340Z,61.23
2019-03-25T06:08:25.216Z,50.07
2019-03-25T06:10:55.064Z,59.13
2019-03-25T06:13:27.932Z,54.17
2019-03-25T06:15:59.033Z,48.53
2019-03-25T06:18:29.388Z,45.37
2019-03-25T06:20:59.620Z,43.87
2019-03-25T06:23:29.741Z,40.13
2019-03-25T06:26:02.044Z,46.93
2019-03-25T06:28:32.859Z,37.70
2019-03-25T06:31:03.271Z,38.90
2019-03-25T06:33:36.082Z,41.10
2019-03-25T06:36:05.965Z,40.23
2019-03-25T06:38:36.330Z,36.80
2019-03-25T06:41:08.034Z,31.33
2019-03-25T06:43:40.611Z,36.10
2019-03-25T06:46:11.631Z,30.93
2019-03-25T06:48:43.832Z,32.20
2019-03-25T06:51:14.247Z,27.03
2019-03-25T06:53:48.740Z,28.97
2019-03-25T06:56:19.255Z,29.90
2019-03-25T06:59:07.353Z,28.63
2019-03-25T07:01:40.491Z,31.23
2019-03-25T07:04:47.223Z,29.70
2019-03-25T07:07:19.649Z,26.47
2019-03-25T07:09:51.639Z,25.57
2019-03-25T07:12:22.238Z,24.00
2019-03-25T07:14:54.711Z,24.27
2019-03-25T07:17:26.773Z,24.87
2019-03-25T07:19:59.711Z,24.83
2019-03-25T07:22:32.048Z,22.87
2019-03-25T07:25:02.120Z,22.33
2019-03-25T07:27:37.169Z,25.67
2019-03-25T07:30:06.927Z,21.10
2019-03-25T07:32:37.371Z,26.93
2019-03-25T07:35:07.644Z,20.37
2019-03-25T07:37:38.266Z,18.70
2019-03-25T07:40:08.730Z,21.87
2019-03-25T07:42:39.033Z,23.73
2019-03-25T07:45:12.073Z,17.03
2019-03-25T07:47:42.845Z,19.30
2019-03-25T07:50:15.608Z,22.67
2019-03-25T07:52:45.890Z,25.50
2019-03-25T07:55:16.039Z,19.43
2019-03-25T07:57:48.606Z,19.07
2019-03-25T08:00:20.127Z,21.73
2019-03-25T08:02:50.628Z,21.37
2019-03-25T08:05:20.622Z,19.37
2019-03-25T08:07:52.286Z,19.33
2019-03-25T08:10:33.513Z,20.70
2019-03-25T08:13:04.091Z,18.63
2019-03-25T08:15:34.150Z,16.63
2019-03-25T08:18:04.622Z,18.47
2019-03-25T08:20:35.131Z,15.60
2019-03-25T08:23:09.076Z,16.20
2019-03-25T08:25:39.363Z,15.90
2019-03-25T08:28:10.025Z,14.83
2019-03-25T08:30:43.246Z,19.67
2019-03-25T08:33:13.471Z,16.70
2019-03-25T08:35:43.810Z,18.23
2019-03-25T08:38:14.206Z,16.73
2019-03-25T08:40:44.576Z,17.53
2019-03-25T08:43:14.649Z,18.97
2019-03-25T08:45:44.389Z,15.40
2019-03-25T08:48:16.874Z,17.37
2019-03-25T08:50:46.909Z,19.33
2019-03-25T08:53:16.612Z,17.10
2019-03-25T08:55:47.458Z,13.07
2019-03-25T08:58:18.797Z,15.37
2019-03-25T09:00:48.903Z,14.20
2019-03-25T09:03:19.089Z,20.03
2019-03-25T09:05:49.177Z,14.90
2019-03-25T09:08:18.890Z,12.00
2019-03-25T09:10:49.542Z,11.77
2019-03-25T09:13:21.158Z,12.43
2019-03-25T09:15:50.958Z,13.10
2019-03-25T09:18:21.660Z,12.17
2019-03-25T09:20:53.522Z,15.60
2019-03-25T09:23:24.482Z,15.37
2019-03-25T09:25:54.155Z,13.37
2019-03-25T09:28:24.801Z,11.20
2019-03-25T09:31:21.379Z,15.17
2019-03-25T09:33:51.285Z,11.17
2019-03-25T09:36:22.290Z,11.93
2019-03-25T09:38:52.556Z,12.83
2019-03-25T09:41:24.468Z,15.00
2019-03-25T09:43:55.283Z,13.77
2019-03-25T09:46:25.463Z,10.30
2019-03-25T09:48:56.619Z,13.37
2019-03-25T09:51:30.092Z,9.90
2019-03-25T09:54:00.883Z,15.30
2019-03-25T09:56:30.562Z,14.17
2019-03-25T09:59:02.260Z,10.97
2019-03-25T10:01:34.646Z,13.57
2019-03-25T10:04:04.314Z,10.77
2019-03-25T10:06:36.266Z,11.20
2019-03-25T10:09:11.985Z,8.37
2019-03-25T10:11:43.218Z,7.47
2019-03-25T10:14:14.736Z,8.73
2019-03-25T10:19:15.654Z,8.18
2019-03-25T10:21:47.906Z,7.77
2019-03-25T10:24:18.632Z,10.63
2019-03-25T10:26:48.998Z,9.77
2019-03-25T10:29:19.278Z,9.37
2019-03-25T10:31:51.443Z,8.70
2019-03-25T10:34:21.967Z,6.70
2019-03-25T10:36:52.547Z,5.33
2019-03-25T10:39:24.912Z,5.40
2019-03-25T10:41:55.808Z,5.17
2019-03-25T10:45:22.554Z,4.57
2019-03-25T10:47:52.322Z,5.33
2019-03-25T10:50:22.014Z,6.00
2019-03-25T10:52:51.911Z,4.97
2019-03-25T10:55:23.112Z,3.93
2019-03-25T10:57:57.606Z,5.00
2019-03-25T11:00:29.372Z,6.23
2019-03-25T11:02:59.384Z,4.37
2019-03-25T11:05:31.028Z,6.63
2019-03-25T11:10:31.738Z,6.57
2019-03-25T11:13:03.499Z,5.83
2019-03-25T11:15:34.486Z,4.60
2019-03-25T11:18:05.849Z,4.73
2019-03-25T11:20:36.381Z,5.50
2019-03-25T11:23:07.665Z,4.33
2019-03-25T11:25:39.230Z,3.50
2019-03-25T11:28:12.632Z,7.13
2019-03-25T11:30:52.942Z,4.23
2019-03-25T11:33:23.284Z,6.77
2019-03-25T11:35:54.720Z,2.83
2019-03-25T11:38:28.331Z,4.77
2019-03-25T11:40:59.182Z,2.80
2019-03-25T11:43:29.411Z,4.10
2019-03-25T11:46:00.180Z,3.87
2019-03-25T11:48:33.306Z,4.83
2019-03-25T11:51:03.782Z,2.87
2019-03-25T11:53:33.491Z,4.90
2019-03-25T11:56:04.954Z,5.63
2019-03-25T11:58:35.222Z,6.73
2019-03-25T12:01:32.887Z,9.73
2019-03-25T12:04:07.495Z,5.53
2019-03-25T12:06:44.312Z,6.13
2019-03-25T12:09:16.603Z,7.37
2019-03-25T12:11:49.776Z,4.13
2019-03-25T12:14:19.906Z,3.10
2019-03-25T12:16:52.575Z,6.23
2019-03-25T12:19:22.642Z,2.57
2019-03-25T12:22:01.499Z,10.10
2019-03-25T12:24:32.457Z,6.07
2019-03-25T12:27:02.729Z,3.80
2019-03-25T12:29:35.687Z,3.50
2019-03-25T12:32:22.434Z,3.73
2019-03-25T12:34:52.697Z,6.53
2019-03-25T12:37:22.455Z,3.90
2019-03-25T12:39:54.132Z,3.30
2019-03-25T12:42:27.112Z,6.87
2019-03-25T12:44:57.983Z,4.93
2019-03-25T12:47:27.964Z,4.37
2019-03-25T12:49:58.389Z,2.80
2019-03-25T12:52:28.547Z,5.60
2019-03-25T12:54:59.743Z,2.60
2019-03-25T12:57:30.472Z,5.27
2019-03-25T13:00:02.540Z,6.37
2019-03-25T13:02:33.046Z,6.80
2019-03-25T13:05:05.364Z,4.87
2019-03-25T13:07:36.432Z,2.50
2019-03-25T13:10:06.633Z,6.93
2019-03-25T13:12:38.436Z,5.90
2019-03-25T13:15:09.412Z,10.07
2019-03-25T13:17:40.195Z,4.67
2019-03-25T13:20:11.330Z,4.70
2019-03-25T13:22:41.403Z,17.43
2019-03-25T13:25:14.480Z,5.07
2019-03-25T13:27:44.332Z,7.20
2019-03-25T13:30:16.089Z,5.87
2019-03-25T13:32:47.824Z,4.17
2019-03-25T13:35:17.471Z,5.77
2019-03-25T13:37:48.462Z,5.40
2019-03-25T13:40:18.408Z,6.53
2019-03-25T13:42:51.286Z,3.90
2019-03-25T13:45:21.406Z,4.97
2019-03-25T13:47:52.468Z,4.13
2019-03-25T13:50:22.618Z,4.63
2019-03-25T13:52:54.678Z,5.07
2019-03-25T13:55:26.648Z,3.50
2019-03-25T13:57:56.984Z,4.07
2019-03-25T14:00:38.598Z,5.53
2019-03-25T14:03:12.333Z,4.33
2019-03-25T14:05:43.248Z,5.07
2019-03-25T14:08:13.386Z,3.00
2019-03-25T14:10:43.466Z,5.10
2019-03-25T14:13:13.473Z,5.67
2019-03-25T14:15:46.381Z,3.70
2019-03-25T14:18:18.289Z,4.13
2019-03-25T14:20:51.706Z,2.80
2019-03-25T14:23:21.379Z,2.40
2019-03-25T14:25:52.210Z,3.43
2019-03-25T14:28:22.146Z,3.10
2019-03-25T14:30:54.612Z,3.93
2019-03-25T14:33:25.069Z,4.70
2019-03-25T14:35:58.059Z,3.33
2019-03-25T14:38:28.122Z,2.50
2019-03-25T14:41:00.890Z,3.40
2019-03-25T14:43:31.862Z,3.27
2019-03-25T14:46:01.911Z,3.07
2019-03-25T14:48:34.157Z,3.67
2019-03-25T14:51:05.116Z,4.07
2019-03-25T14:53:44.822Z,4.37
2019-03-25T14:56:07.221Z,4.67
2019-03-25T14:58:36.905Z,5.00
2019-03-25T15:01:07.205Z,5.73
2019-03-25T15:03:37.737Z,5.00
2019-03-25T15:06:11.770Z,4.40
2019-03-25T15:08:43.511Z,6.43
2019-03-25T15:11:14.737Z,3.20
2019-03-25T15:13:44.860Z,6.17
2019-03-25T15:16:14.828Z,3.23
2019-03-25T15:18:44.727Z,3.53
2019-03-25T15:21:14.695Z,3.87
2019-03-25T15:23:44.402Z,3.80
2019-03-25T15:26:14.393Z,6.00
2019-03-25T15:28:44.467Z,5.07
2019-03-25T15:31:14.638Z,3.53
2019-03-25T15:33:45.360Z,2.87
2019-03-25T15:36:17.608Z,5.87
2019-03-25T15:38:51.068Z,3.57
2019-03-25T15:41:24.211Z,3.97
2019-03-25T15:43:54.745Z,2.60
2019-03-25T15:46:28.223Z,3.57
2019-03-25T15:49:00.267Z,3.17
2019-03-25T15:51:31.373Z,3.83
2019-03-25T15:54:03.309Z,3.27
2019-03-25T15:56:34.456Z,3.70
2019-03-25T15:59:04.113Z,3.40
2019-03-25T16:01:34.943Z,3.20
2019-03-25T16:04:15.386Z,2.80
2019-03-25T16:06:46.491Z,3.43
2019-03-25T16:09:19.898Z,4.50
2019-03-25T16:11:50.017Z,3.00
2019-03-25T16:14:24.922Z,3.40
2019-03-25T16:16:57.795Z,5.47
2019-03-25T16:19:28.355Z,3.77
2019-03-25T16:21:58.629Z,4.53
2019-03-25T16:24:32.112Z,5.20
2019-03-25T16:27:04.938Z,3.37
2019-03-25T16:29:35.798Z,3.90
2019-03-25T16:32:06.846Z,4.53
2019-03-25T16:34:37.624Z,5.37
2019-03-25T16:37:08.307Z,5.23
2019-03-25T16:39:39.543Z,2.80
2019-03-25T16:42:12.203Z,2.97
2019-03-25T16:44:44.133Z,2.90
2019-03-25T16:47:14.815Z,2.57
2019-03-25T16:49:44.915Z,2.20
2019-03-25T16:52:16.698Z,2.97
2019-03-25T16:54:46.641Z,2.27
2019-03-25T16:57:18.753Z,3.20
2019-03-25T16:59:49.538Z,3.27
2019-03-25T17:02:20.614Z,2.33
2019-03-25T17:04:50.796Z,2.47
2019-03-25T17:07:20.546Z,2.40
2019-03-25T17:09:51.555Z,3.83
2019-03-25T17:12:22.996Z,2.50
2019-03-25T17:14:53.680Z,2.23
2019-03-25T17:17:25.849Z,3.70
2019-03-25T17:19:55.925Z,2.60
2019-03-25T17:22:26.937Z,4.33
2019-03-25T17:24:57.374Z,2.80
2019-03-25T17:27:28.872Z,3.33
2019-03-25T17:30:02.336Z,3.23
2019-03-25T17:32:32.484Z,2.40
2019-03-25T17:35:03.945Z,2.60
2019-03-25T17:37:35.018Z,4.33
2019-03-25T17:40:07.725Z,3.83
2019-03-25T17:42:38.257Z,2.80
2019-03-25T17:45:11.809Z,5.90
2019-03-25T17:51:12.852Z,4.97
2019-03-25T17:53:59.187Z,3.67
2019-03-25T17:56:46.253Z,4.43
2019-03-25T17:59:21.940Z,3.23
2019-03-25T18:01:49.234Z,5.50
2019-03-25T18:04:19.762Z,2.80
2019-03-25T18:06:51.214Z,4.30
2019-03-25T18:09:22.517Z,3.00
2019-03-25T18:11:52.186Z,2.90
2019-03-25T18:14:22.698Z,2.80
2019-03-25T18:16:53.103Z,5.17
2019-03-25T18:19:23.056Z,2.70
2019-03-25T18:21:53.305Z,3.30
2019-03-25T18:24:23.430Z,3.57
2019-03-25T18:26:52.977Z,2.80
2019-03-25T18:29:24.929Z,3.83
2019-03-25T18:31:54.870Z,2.97
2019-03-25T18:34:27.793Z,2.90
2019-03-25T18:36:57.506Z,2.70
2019-03-25T18:39:45.290Z,3.70
2019-03-25T18:42:11.177Z,3.40
2019-03-25T18:44:43.682Z,3.17
2019-03-25T18:47:13.916Z,2.90
2019-03-25T18:49:51.323Z,2.90
2019-03-25T18:52:22.969Z,3.37
2019-03-25T18:54:55.119Z,3.40
2019-03-25T18:57:24.853Z,3.20
2019-03-25T18:59:56.960Z,5.20
2019-03-25T19:02:26.972Z,2.57
2019-03-25T19:05:00.988Z,4.03
2019-03-25T19:07:30.779Z,3.00
2019-03-25T19:10:01.799Z,4.00
2019-03-25T19:12:31.578Z,3.20
2019-03-25T19:15:03.072Z,3.53
2019-03-25T19:17:33.538Z,3.00
2019-03-25T19:20:03.711Z,4.30
2019-03-25T19:22:36.861Z,3.13
2019-03-25T19:25:06.755Z,3.20
2019-03-25T19:27:36.963Z,3.40
2019-03-25T19:30:07.776Z,2.73
2019-03-25T19:32:37.955Z,3.10
2019-03-25T19:35:07.892Z,3.27
2019-03-25T19:37:37.846Z,4.67
2019-03-25T19:40:09.828Z,3.10
2019-03-25T19:42:41.937Z,3.40
2019-03-25T19:45:13.980Z,3.90
2019-03-25T19:47:44.343Z,3.77
2019-03-25T19:50:16.421Z,3.10
2019-03-25T19:52:46.922Z,2.43
2019-03-25T19:55:16.714Z,5.03
2019-03-25T19:57:49.347Z,3.63
2019-03-25T20:00:24.042Z,2.40
2019-03-25T20:02:54.203Z,2.63
2019-03-25T20:05:24.575Z,3.73
2019-03-25T20:07:55.406Z,4.97
2019-03-25T20:10:34.821Z,1.63
2019-03-25T20:13:04.767Z,3.10
2019-03-25T20:15:45.407Z,1.90
2019-03-25T20:18:08.089Z,2.83
2019-03-25T20:20:39.793Z,2.00
2019-03-25T20:23:10.442Z,2.00
2019-03-25T20:25:43.054Z,2.40
2019-03-25T20:28:14.527Z,2.10
2019-03-25T20:30:45.969Z,2.33
2019-03-25T20:33:15.669Z,4.03
2019-03-25T20:35:45.375Z,2.43
2019-03-25T20:38:15.431Z,2.30
2019-03-25T20:40:45.972Z,2.53
2019-03-25T20:43:15.771Z,2.97
2019-03-25T20:45:45.648Z,2.57
2019-03-25T20:48:15.811Z,2.80
2019-03-25T20:50:45.653Z,2.97
2019-03-25T20:53:18.348Z,4.00
2019-03-25T20:55:49.027Z,3.07
2019-03-25T20:58:19.802Z,3.30
2019-03-25T21:00:58.731Z,3.07
2019-03-25T21:03:31.575Z,3.87
2019-03-25T21:06:04.715Z,4.23
2019-03-25T21:08:36.383Z,4.53
2019-03-25T21:11:08.144Z,3.40
2019-03-25T21:13:38.565Z,3.23
2019-03-25T21:16:10.289Z,5.43
2019-03-25T21:18:40.881Z,3.27
2019-03-25T21:21:12.981Z,3.77
2019-03-25T21:23:42.749Z,3.70
2019-03-25T21:26:12.815Z,3.73
2019-03-25T21:28:48.358Z,4.43
2019-03-25T21:31:28.039Z,4.13
2019-03-25T21:33:59.014Z,4.30
2019-03-25T21:36:31.299Z,4.57
2019-03-25T21:39:23.740Z,4.97
2019-03-25T21:41:57.253Z,4.00
2019-03-25T21:44:29.414Z,4.00
2019-03-25T21:47:24.587Z,4.83
2019-03-25T21:50:04.675Z,5.53
2019-03-25T21:52:43.279Z,4.60
2019-03-25T21:55:14.575Z,4.17
2019-03-25T21:57:52.429Z,4.53
2019-03-25T22:00:26.860Z,4.60
2019-03-25T22:03:11.326Z,4.73
2019-03-25T22:05:46.315Z,6.37
2019-03-25T22:08:23.671Z,4.53
2019-03-25T22:11:22.295Z,5.27
2019-03-25T22:14:05.154Z,6.73
2019-03-25T22:16:43.014Z,4.30
2019-03-25T22:19:18.312Z,3.97
2019-03-25T22:21:48.258Z,5.83
2019-03-25T22:24:18.332Z,4.93
2019-03-25T22:26:49.138Z,4.20
2019-03-25T22:29:39.248Z,4.37
2019-03-25T22:32:09.225Z,3.93
2019-03-25T22:38:28.960Z,4.37
2019-03-25T22:41:01.696Z,5.47
2019-03-25T22:43:44.590Z,3.73
2019-03-25T22:46:16.185Z,3.60
2019-03-25T22:48:47.844Z,3.93
2019-03-25T22:51:17.671Z,4.30
2019-03-25T22:53:50.350Z,3.90
2019-03-25T22:56:20.734Z,4.07
2019-03-25T22:58:51.095Z,4.23
2019-03-25T23:01:20.994Z,4.40
2019-03-25T23:03:55.097Z,4.60
2019-03-25T23:06:27.143Z,4.47
2019-03-25T23:08:58.166Z,5.13
2019-03-25T23:11:28.545Z,5.00
2019-03-25T23:14:00.397Z,4.43
2019-03-25T23:16:30.415Z,3.73
2019-03-25T23:19:02.082Z,4.10
2019-03-25T23:21:34.152Z,4.00
2019-03-25T23:24:11.846Z,5.53
2019-03-25T23:27:02.373Z,7.23
2019-03-25T23:29:33.687Z,7.53
2019-03-25T23:32:09.990Z,4.63
2019-03-25T23:34:39.772Z,5.77
2019-03-25T23:37:10.153Z,4.20
2019-03-25T23:39:40.742Z,4.47
2019-03-25T23:42:11.652Z,4.40
2019-03-25T23:44:47.702Z,4.73
2019-03-25T23:47:15.126Z,6.27
2019-03-25T23:49:45.859Z,6.23
2019-03-25T23:52:16.150Z,5.93
2019-03-25T23:54:47.276Z,5.17
2019-03-25T23:57:17.506Z,6.30
2019-03-25T23:59:48.532Z,6.37
